createdAt,value
2018-05-03T00:01:54.663Z,83.50
2018-05-03T00:04:22.149Z,83.50
2018-05-03T00:06:49.666Z,83.60
2018-05-03T00:09:17.174Z,84.00
2018-05-03T00:11:44.693Z,83.70
2018-05-03T00:14:12.249Z,83.80
2018-05-03T00:16:40.525Z,84.60
2018-05-03T00:19:08.073Z,84.60
2018-05-03T00:21:35.590Z,84.60
2018-05-03T00:24:03.091Z,84.70
2018-05-03T00:26:30.690Z,84.40
2018-05-03T00:28:58.988Z,84.40
2018-05-03T00:31:26.604Z,84.30
2018-05-03T00:33:54.096Z,84.60
2018-05-03T00:36:21.592Z,84.80
2018-05-03T00:38:49.091Z,85.70
2018-05-03T00:41:17.420Z,88.20
2018-05-03T00:43:44.923Z,87.90
2018-05-03T00:46:12.441Z,89.00
2018-05-03T00:48:40.064Z,88.70
2018-05-03T00:51:08.319Z,85.60
2018-05-03T00:53:35.831Z,85.60
2018-05-03T00:56:03.350Z,85.80
2018-05-03T00:58:31.638Z,86.30
2018-05-03T01:00:59.903Z,87.00
2018-05-03T01:03:28.181Z,86.40
2018-05-03T01:05:56.459Z,87.70
2018-05-03T01:08:24.756Z,88.10
2018-05-03T01:10:52.299Z,88.00
2018-05-03T01:13:20.566Z,89.80
2018-05-03T01:15:48.830Z,90.30
2018-05-03T01:18:16.349Z,90.30
2018-05-03T01:20:56.579Z,90.90
2018-05-03T01:23:24.527Z,90.20
2018-05-03T01:25:52.827Z,89.90
2018-05-03T01:28:20.365Z,89.70
2018-05-03T01:30:48.619Z,89.10
2018-05-03T01:33:16.136Z,89.10
2018-05-03T01:35:55.448Z,89.20
2018-05-03T01:38:22.954Z,88.70
2018-05-03T01:40:50.441Z,88.60
2018-05-03T01:43:18.688Z,89.00
2018-05-03T01:45:46.243Z,88.90
2018-05-03T01:48:13.788Z,88.80
2018-05-03T01:50:41.305Z,88.40
2018-05-03T01:53:09.585Z,87.40
2018-05-03T01:55:37.867Z,86.30
2018-05-03T01:58:05.386Z,86.30
2018-05-03T02:00:32.887Z,86.10
2018-05-03T02:03:00.441Z,86.00
2018-05-03T02:05:28.092Z,85.80
2018-05-03T02:07:56.357Z,85.50
2018-05-03T02:10:24.632Z,85.80
2018-05-03T02:12:52.100Z,85.20
2018-05-03T02:15:20.376Z,85.20
2018-05-03T02:17:48.649Z,85.00
2018-05-03T02:20:16.203Z,85.00
2018-05-03T02:22:44.489Z,85.10
2018-05-03T02:25:12.869Z,86.10
2018-05-03T02:27:41.153Z,85.80
2018-05-03T02:30:08.689Z,85.80
2018-05-03T02:32:36.173Z,85.80
2018-05-03T02:35:03.653Z,87.50
2018-05-03T02:37:31.213Z,88.40
2018-05-03T02:39:58.696Z,90.00
2018-05-03T02:42:26.317Z,90.00
2018-05-03T02:44:53.809Z,89.30
2018-05-03T02:47:21.385Z,89.20
2018-05-03T02:49:48.976Z,88.50
2018-05-03T02:52:17.497Z,89.50
2018-05-03T02:54:45.008Z,89.40
2018-05-03T02:57:24.343Z,90.00
2018-05-03T03:00:04.652Z,90.10
2018-05-03T03:02:49.740Z,90.10
2018-05-03T03:05:35.116Z,90.30
2018-05-03T03:08:24.094Z,90.30
2018-05-03T03:11:09.484Z,90.30
2018-05-03T03:17:26.229Z,90.50
2018-05-03T03:20:07.058Z,90.90
2018-05-03T03:22:52.997Z,90.90
2018-05-03T03:25:53.080Z,90.90
2018-05-03T03:28:39.433Z,91.20
2018-05-03T03:31:24.821Z,91.10
2018-05-03T03:34:04.239Z,91.20
2018-05-03T03:39:53.551Z,91.10
2018-05-03T03:45:37.656Z,91.60
2018-05-03T03:48:05.155Z,91.90
2018-05-03T03:50:33.409Z,92.00
2018-05-03T03:53:01.668Z,92.40
2018-05-03T03:55:29.197Z,92.00
2018-05-03T03:57:56.789Z,92.00
2018-05-03T04:00:24.320Z,92.10
2018-05-03T04:02:51.836Z,92.20
2018-05-03T04:05:19.484Z,92.20
2018-05-03T04:07:47.733Z,92.40
2018-05-03T04:10:15.261Z,92.30
2018-05-03T04:12:42.769Z,92.50
2018-05-03T04:15:10.277Z,92.60
2018-05-03T04:17:49.823Z,92.70
2018-05-03T04:20:40.148Z,92.60
2018-05-03T04:26:02.865Z,91.80
2018-05-03T04:28:30.355Z,91.70
2018-05-03T04:30:58.168Z,91.60
2018-05-03T04:33:26.548Z,91.40
2018-05-03T04:35:54.136Z,91.40
2018-05-03T04:38:21.654Z,91.30
2018-05-03T04:40:49.944Z,91.20
2018-05-03T04:43:17.504Z,91.10
2018-05-03T04:45:45.032Z,91.10
2018-05-03T04:48:12.550Z,90.90
2018-05-03T04:50:40.167Z,90.90
2018-05-03T04:53:08.489Z,90.70
2018-05-03T04:55:35.986Z,90.70
2018-05-03T04:58:03.568Z,90.40
2018-05-03T05:00:31.877Z,89.60
2018-05-03T05:02:59.377Z,89.60
2018-05-03T05:05:26.933Z,88.60
2018-05-03T05:07:54.484Z,88.10
2018-05-03T05:10:22.122Z,87.50
2018-05-03T05:12:49.687Z,87.00
2018-05-03T05:15:17.176Z,86.30
2018-05-03T05:17:44.760Z,85.90
2018-05-03T05:20:13.144Z,84.90
2018-05-03T05:22:41.408Z,83.60
2018-05-03T05:25:09.688Z,82.40
2018-05-03T05:27:38.072Z,81.00
2018-05-03T05:30:06.335Z,80.00
2018-05-03T05:32:34.664Z,78.30
2018-05-03T05:35:02.284Z,78.20
2018-05-03T05:37:29.836Z,77.40
2018-05-03T05:39:58.120Z,76.90
2018-05-03T05:42:26.394Z,76.50
2018-05-03T05:44:53.924Z,76.50
2018-05-03T05:47:21.508Z,75.60
2018-05-03T05:49:49.788Z,73.40
2018-05-03T05:52:18.058Z,72.70
2018-05-03T05:54:45.565Z,72.40
2018-05-03T05:57:13.057Z,72.00
2018-05-03T05:59:40.567Z,71.70
2018-05-03T06:02:08.071Z,71.50
2018-05-03T06:04:35.565Z,71.10
2018-05-03T06:07:03.853Z,69.30
2018-05-03T06:09:31.393Z,69.30
2018-05-03T06:11:59.673Z,69.10
2018-05-03T06:14:27.932Z,68.40
2018-05-03T06:16:55.513Z,68.30
2018-05-03T06:19:23.775Z,68.20
2018-05-03T06:21:52.119Z,68.60
2018-05-03T06:24:19.637Z,68.40
2018-05-03T06:26:51.730Z,68.10
2018-05-03T06:29:19.269Z,67.90
2018-05-03T06:31:46.778Z,66.50
2018-05-03T06:34:14.268Z,64.80
2018-05-03T06:36:41.784Z,63.60
2018-05-03T06:39:09.297Z,62.40
2018-05-03T06:41:36.785Z,62.40
2018-05-03T06:44:04.317Z,61.70
2018-05-03T06:46:31.811Z,60.10
2018-05-03T06:48:59.392Z,59.80
2018-05-03T06:51:27.793Z,57.90
2018-05-03T06:53:59.507Z,57.90
2018-05-03T06:56:27.011Z,58.00
2018-05-03T06:58:55.300Z,55.90
2018-05-03T07:01:22.788Z,55.90
2018-05-03T07:03:50.399Z,54.80
2018-05-03T07:06:17.973Z,54.50
2018-05-03T07:08:45.516Z,53.10
2018-05-03T07:11:13.878Z,55.00
2018-05-03T07:13:41.376Z,54.90
2018-05-03T07:16:08.870Z,54.90
2018-05-03T07:18:36.396Z,52.80
2018-05-03T07:21:04.025Z,51.70
2018-05-03T07:23:31.830Z,51.40
2018-05-03T07:25:59.312Z,51.30
2018-05-03T07:28:26.790Z,49.20
2018-05-03T07:30:54.305Z,48.20
2018-05-03T07:33:21.815Z,46.60
2018-05-03T07:35:50.246Z,44.00
2018-05-03T07:38:17.744Z,44.00
2018-05-03T07:40:45.237Z,45.30
2018-05-03T07:43:13.484Z,47.00
2018-05-03T07:45:41.804Z,46.90
2018-05-03T07:48:09.324Z,46.90
2018-05-03T07:50:37.608Z,45.00
2018-05-03T07:53:05.974Z,45.50
2018-05-03T07:55:34.248Z,47.50
2018-05-03T07:58:01.760Z,47.40
2018-05-03T08:00:29.307Z,47.90
2018-05-03T08:02:56.783Z,45.60
2018-05-03T08:05:24.300Z,45.20
2018-05-03T08:07:52.577Z,45.90
2018-05-03T08:10:20.945Z,46.80
2018-05-03T08:12:49.231Z,47.20
2018-05-03T08:15:16.763Z,47.20
2018-05-03T08:17:44.272Z,47.00
2018-05-03T08:20:11.761Z,46.40
2018-05-03T08:22:39.269Z,44.50
2018-05-03T08:25:07.529Z,42.40
2018-05-03T08:27:34.999Z,42.30
2018-05-03T08:30:02.498Z,42.90
2018-05-03T08:32:29.989Z,42.90
2018-05-03T08:34:58.297Z,42.60
2018-05-03T08:37:26.559Z,41.80
2018-05-03T08:39:54.833Z,40.90
2018-05-03T08:42:23.097Z,38.70
2018-05-03T08:44:51.388Z,38.70
2018-05-03T08:47:19.929Z,39.00
2018-05-03T08:49:47.428Z,39.00
2018-05-03T08:52:15.671Z,39.50
2018-05-03T08:54:43.220Z,39.30
2018-05-03T08:57:10.728Z,38.90
2018-05-03T08:59:38.306Z,38.80
2018-05-03T09:02:05.808Z,40.10
2018-05-03T09:04:33.324Z,39.60
2018-05-03T09:07:00.804Z,39.00
2018-05-03T09:09:28.292Z,37.80
2018-05-03T09:11:56.611Z,37.40
2018-05-03T09:14:24.095Z,37.30
2018-05-03T09:16:51.699Z,35.10
2018-05-03T09:19:19.984Z,39.10
2018-05-03T09:21:47.528Z,39.10
2018-05-03T09:24:15.810Z,39.30
2018-05-03T09:26:44.076Z,40.40
2018-05-03T09:29:11.632Z,40.40
2018-05-03T09:31:39.912Z,39.50
2018-05-03T09:34:07.405Z,38.90
2018-05-03T09:36:34.914Z,41.40
2018-05-03T09:39:02.434Z,40.00
2018-05-03T09:41:30.771Z,38.80
2018-05-03T09:43:59.053Z,39.30
2018-05-03T09:46:27.334Z,40.10
2018-05-03T09:48:55.597Z,39.50
2018-05-03T09:51:23.972Z,37.20
2018-05-03T09:53:52.213Z,36.20
2018-05-03T09:56:19.713Z,36.20
2018-05-03T09:58:47.985Z,36.80
2018-05-03T10:01:16.328Z,38.80
2018-05-03T10:03:44.549Z,38.70
2018-05-03T10:06:12.046Z,38.80
2018-05-03T10:08:39.532Z,37.90
2018-05-03T10:11:07.160Z,37.00
2018-05-03T10:13:34.685Z,38.50
2018-05-03T10:16:02.947Z,40.20
2018-05-03T10:18:31.239Z,39.30
2018-05-03T10:20:59.492Z,41.20
2018-05-03T10:23:28.176Z,41.10
2018-05-03T10:25:56.862Z,37.20
2018-05-03T10:28:24.350Z,37.10
2018-05-03T10:30:51.896Z,34.70
2018-05-03T10:33:20.188Z,33.80
2018-05-03T10:35:47.688Z,33.80
2018-05-03T10:38:15.216Z,34.70
2018-05-03T10:40:42.708Z,32.90
2018-05-03T10:43:10.192Z,33.10
2018-05-03T10:45:38.576Z,33.30
2018-05-03T10:48:06.860Z,33.70
2018-05-03T10:50:35.147Z,32.30
2018-05-03T10:53:03.504Z,32.20
2018-05-03T10:55:31.779Z,34.20
2018-05-03T10:58:00.058Z,33.90
2018-05-03T11:00:28.316Z,34.00
2018-05-03T11:02:55.813Z,33.90
2018-05-03T11:05:23.342Z,34.80
2018-05-03T11:07:50.782Z,34.80
2018-05-03T11:10:18.332Z,34.30
2018-05-03T11:12:45.841Z,34.80
2018-05-03T11:15:13.386Z,37.00
2018-05-03T11:17:41.659Z,36.20
2018-05-03T11:20:09.925Z,36.40
2018-05-03T11:22:38.193Z,35.80
2018-05-03T11:25:05.719Z,35.80
2018-05-03T11:27:33.597Z,35.40
2018-05-03T11:30:01.121Z,35.00
2018-05-03T11:32:28.603Z,32.20
2018-05-03T11:34:56.111Z,32.30
2018-05-03T11:37:24.419Z,31.10
2018-05-03T11:39:51.948Z,31.10
2018-05-03T11:42:20.211Z,32.80
2018-05-03T11:44:48.490Z,33.00
2018-05-03T11:47:16.755Z,34.80
2018-05-03T11:49:44.351Z,34.80
2018-05-03T11:52:11.851Z,36.00
2018-05-03T11:54:39.383Z,34.40
2018-05-03T11:57:06.908Z,36.30
2018-05-03T11:59:34.402Z,38.40
2018-05-03T12:02:01.913Z,37.20
2018-05-03T12:04:29.488Z,35.40
2018-05-03T12:06:57.781Z,35.60
2018-05-03T12:09:26.141Z,35.60
2018-05-03T12:11:54.526Z,35.80
2018-05-03T12:14:22.771Z,35.70
2018-05-03T12:16:50.310Z,35.70
2018-05-03T12:19:17.813Z,34.30
2018-05-03T12:21:46.087Z,35.60
2018-05-03T12:24:13.940Z,35.60
2018-05-03T12:26:43.058Z,35.20
2018-05-03T12:29:23.764Z,35.70
2018-05-03T12:31:51.358Z,35.70
2018-05-03T12:34:19.236Z,36.40
2018-05-03T12:36:46.716Z,34.90
2018-05-03T12:39:14.246Z,34.50
2018-05-03T12:41:42.698Z,34.60
2018-05-03T12:44:10.303Z,34.10
2018-05-03T12:46:38.570Z,34.50
2018-05-03T12:49:06.864Z,35.70
2018-05-03T12:51:34.357Z,35.50
2018-05-03T12:54:01.832Z,35.40
2018-05-03T12:56:29.351Z,34.80
2018-05-03T12:58:58.276Z,34.10
2018-05-03T13:01:25.868Z,32.40
2018-05-03T13:03:54.136Z,35.70
2018-05-03T13:06:21.640Z,35.70
2018-05-03T13:08:49.119Z,36.60
2018-05-03T13:11:16.722Z,36.80
2018-05-03T13:13:45.833Z,37.10
2018-05-03T13:16:13.334Z,37.10
2018-05-03T13:18:40.844Z,36.40
2018-05-03T13:21:09.106Z,37.30
2018-05-03T13:23:37.388Z,38.10
2018-05-03T13:26:05.649Z,38.30
2018-05-03T13:28:33.260Z,38.30
2018-05-03T13:31:00.743Z,38.30
2018-05-03T13:33:28.268Z,38.10
2018-05-03T13:35:55.816Z,38.70
2018-05-03T13:38:23.361Z,38.10
2018-05-03T13:40:51.623Z,36.90
2018-05-03T13:43:19.172Z,36.80
2018-05-03T13:45:46.712Z,38.40
2018-05-03T13:48:14.263Z,36.60
2018-05-03T13:50:41.770Z,38.50
2018-05-03T13:53:10.007Z,36.80
2018-05-03T13:55:37.508Z,36.90
2018-05-03T13:58:05.773Z,36.20
2018-05-03T14:00:34.064Z,36.30
2018-05-03T14:03:02.401Z,36.20
2018-05-03T14:05:29.889Z,36.20
2018-05-03T14:07:59.045Z,35.20
2018-05-03T14:10:26.537Z,35.10
2018-05-03T14:12:54.842Z,35.70
2018-05-03T14:15:22.427Z,35.60
2018-05-03T14:17:49.919Z,37.10
2018-05-03T14:20:17.438Z,38.80
2018-05-03T14:22:44.945Z,38.10
2018-05-03T14:25:12.455Z,38.70
2018-05-03T14:27:39.987Z,35.90
2018-05-03T14:30:07.515Z,37.80
2018-05-03T14:32:34.989Z,37.60
2018-05-03T14:35:03.437Z,36.80
2018-05-03T14:37:30.977Z,36.80
2018-05-03T14:39:58.486Z,37.40
2018-05-03T14:42:26.760Z,37.70
2018-05-03T14:44:55.052Z,38.80
2018-05-03T14:47:22.643Z,38.80
2018-05-03T14:49:50.473Z,39.30
2018-05-03T14:52:19.574Z,39.20
2018-05-03T14:54:48.332Z,40.20
2018-05-03T14:57:16.940Z,40.20
2018-05-03T14:59:45.190Z,40.10
2018-05-03T15:02:13.478Z,40.40
2018-05-03T15:04:42.584Z,39.60
2018-05-03T15:07:17.434Z,40.80
2018-05-03T15:09:44.922Z,40.60
2018-05-03T15:12:12.432Z,39.70
2018-05-03T15:14:41.112Z,40.10
2018-05-03T15:17:09.412Z,37.80
2018-05-03T15:19:37.090Z,37.80
2018-05-03T15:22:04.593Z,38.80
2018-05-03T15:24:32.865Z,38.80
2018-05-03T15:27:01.993Z,40.30
2018-05-03T15:29:29.531Z,40.10
2018-05-03T15:31:57.920Z,38.90
2018-05-03T15:34:26.180Z,41.20
2018-05-03T15:36:54.079Z,41.20
2018-05-03T15:39:21.714Z,41.10
2018-05-03T15:41:49.140Z,39.10
2018-05-03T15:44:16.681Z,38.80
2018-05-03T15:46:44.168Z,39.20
2018-05-03T15:49:11.768Z,40.20
2018-05-03T15:51:39.314Z,40.60
2018-05-03T15:54:08.411Z,40.40
2018-05-03T15:56:36.672Z,41.80
2018-05-03T15:59:04.910Z,41.80
2018-05-03T16:01:32.593Z,42.40
2018-05-03T16:04:00.790Z,40.90
2018-05-03T16:06:29.012Z,42.00
2018-05-03T16:08:56.541Z,41.50
2018-05-03T16:11:24.402Z,42.10
2018-05-03T16:13:52.901Z,42.10
2018-05-03T16:16:20.429Z,42.10
2018-05-03T16:18:48.718Z,41.90
2018-05-03T16:21:17.014Z,42.70
2018-05-03T16:23:44.555Z,42.60
2018-05-03T16:26:12.846Z,43.30
2018-05-03T16:28:40.329Z,43.30
2018-05-03T16:31:08.560Z,41.40
2018-05-03T16:33:36.811Z,39.40
2018-05-03T16:36:05.853Z,40.00
2018-05-03T16:38:33.383Z,40.00
2018-05-03T16:41:01.800Z,43.50
2018-05-03T16:43:29.292Z,43.50
2018-05-03T16:45:56.837Z,39.20
2018-05-03T16:48:24.364Z,39.90
2018-05-03T16:50:51.936Z,40.90
2018-05-03T16:53:19.500Z,42.00
2018-05-03T16:55:47.013Z,41.80
2018-05-03T16:58:15.276Z,44.60
2018-05-03T17:00:43.585Z,40.60
2018-05-03T17:03:11.893Z,42.00
2018-05-03T17:05:39.372Z,41.90
2018-05-03T17:08:06.897Z,42.70
2018-05-03T17:10:34.384Z,41.60
2018-05-03T17:13:01.910Z,44.10
2018-05-03T17:15:29.444Z,41.60
2018-05-03T17:17:56.949Z,41.90
2018-05-03T17:20:24.664Z,42.30
2018-05-03T17:22:52.944Z,41.90
2018-05-03T17:25:20.447Z,41.90
2018-05-03T17:27:47.996Z,42.00
2018-05-03T17:30:15.495Z,42.10
2018-05-03T17:32:44.645Z,42.70
2018-05-03T17:35:12.132Z,42.60
2018-05-03T17:37:39.694Z,42.10
2018-05-03T17:40:07.435Z,41.80
2018-05-03T17:42:34.959Z,42.00
2018-05-03T17:45:02.464Z,42.80
2018-05-03T17:47:29.940Z,41.90
2018-05-03T17:49:58.218Z,41.80
2018-05-03T17:52:25.776Z,41.80
2018-05-03T17:54:53.290Z,41.90
2018-05-03T17:57:20.796Z,42.20
2018-05-03T17:59:48.303Z,42.60
2018-05-03T18:02:15.784Z,43.30
2018-05-03T18:04:43.462Z,43.60
2018-05-03T18:07:11.813Z,43.90
2018-05-03T18:09:39.386Z,44.50
2018-05-03T18:12:06.896Z,44.90
2018-05-03T18:14:34.435Z,44.90
2018-05-03T18:17:02.688Z,44.20
2018-05-03T18:19:30.178Z,44.10
2018-05-03T18:21:58.571Z,44.30
2018-05-03T18:24:26.836Z,44.20
2018-05-03T18:26:55.275Z,44.70
2018-05-03T18:29:22.808Z,44.70
2018-05-03T18:31:50.316Z,44.90
2018-05-03T18:34:18.687Z,45.40
2018-05-03T18:36:47.081Z,45.40
2018-05-03T18:39:15.730Z,45.80
2018-05-03T18:41:43.335Z,45.80
2018-05-03T18:44:10.805Z,46.30
2018-05-03T18:46:39.172Z,46.60
2018-05-03T18:49:06.980Z,46.90
2018-05-03T18:51:34.588Z,47.10
2018-05-03T18:54:02.884Z,48.00
2018-05-03T18:56:30.386Z,47.90
2018-05-03T18:58:57.908Z,48.30
2018-05-03T19:01:25.640Z,48.70
2018-05-03T19:03:54.736Z,49.10
2018-05-03T19:06:23.261Z,48.90
2018-05-03T19:08:50.837Z,49.40
2018-05-03T19:11:18.533Z,49.90
2018-05-03T19:13:46.835Z,50.30
2018-05-03T19:16:15.506Z,50.50
2018-05-03T19:18:43.861Z,50.90
2018-05-03T19:21:12.347Z,51.10
2018-05-03T19:23:39.914Z,51.10
2018-05-03T19:26:07.430Z,51.20
2018-05-03T19:28:34.946Z,51.60
2018-05-03T19:31:03.223Z,52.00
2018-05-03T19:33:31.746Z,52.70
2018-05-03T19:35:59.263Z,52.20
2018-05-03T19:38:27.535Z,52.80
2018-05-03T19:40:55.825Z,53.10
2018-05-03T19:43:24.282Z,53.00
2018-05-03T19:45:52.706Z,53.40
2018-05-03T19:48:20.244Z,53.40
2018-05-03T19:50:48.609Z,53.80
2018-05-03T19:53:16.161Z,53.90
2018-05-03T19:55:44.432Z,54.60
2018-05-03T19:58:12.725Z,55.10
2018-05-03T20:00:42.697Z,55.10
2018-05-03T20:03:11.317Z,55.40
2018-05-03T20:05:38.868Z,55.40
2018-05-03T20:08:07.283Z,54.80
2018-05-03T20:10:35.476Z,54.80
2018-05-03T20:13:03.726Z,55.10
2018-05-03T20:15:31.907Z,54.90
2018-05-03T20:17:59.437Z,54.80
2018-05-03T20:20:27.716Z,54.80
2018-05-03T20:22:55.246Z,54.60
2018-05-03T20:25:22.783Z,54.90
2018-05-03T20:27:50.359Z,55.00
2018-05-03T20:30:18.366Z,55.80
2018-05-03T20:32:46.680Z,55.80
2018-05-03T20:35:14.183Z,55.80
2018-05-03T20:37:42.502Z,56.60
2018-05-03T20:40:10.024Z,56.60
2018-05-03T20:42:38.272Z,56.60
2018-05-03T20:45:05.808Z,56.60
2018-05-03T20:47:33.284Z,57.00
2018-05-03T20:50:00.879Z,57.20
2018-05-03T20:52:29.157Z,57.20
2018-05-03T20:54:57.468Z,57.40
2018-05-03T20:57:24.998Z,57.40
2018-05-03T20:59:52.500Z,57.60
2018-05-03T21:02:20.045Z,57.60
2018-05-03T21:04:47.732Z,57.50
2018-05-03T21:07:15.245Z,57.60
2018-05-03T21:09:42.733Z,58.00
2018-05-03T21:12:10.389Z,58.20
2018-05-03T21:14:41.611Z,58.50
2018-05-03T21:17:09.151Z,58.80
2018-05-03T21:19:37.529Z,59.10
2018-05-03T21:22:05.809Z,59.00
2018-05-03T21:24:34.107Z,59.00
2018-05-03T21:27:02.369Z,59.40
2018-05-03T21:29:29.851Z,58.70
2018-05-03T21:31:57.369Z,59.00
2018-05-03T21:34:26.055Z,59.60
2018-05-03T21:36:54.317Z,59.30
2018-05-03T21:39:21.828Z,59.30
2018-05-03T21:41:49.378Z,59.40
2018-05-03T21:44:17.659Z,59.00
2018-05-03T21:46:45.185Z,59.40
2018-05-03T21:49:13.578Z,59.70
2018-05-03T21:51:41.076Z,59.70
2018-05-03T21:54:08.627Z,59.40
2018-05-03T21:56:36.149Z,59.50
2018-05-03T21:59:03.836Z,59.50
2018-05-03T22:01:31.361Z,59.70
2018-05-03T22:03:59.776Z,59.70
2018-05-03T22:06:27.212Z,59.60
2018-05-03T22:08:54.746Z,59.60
2018-05-03T22:11:22.270Z,60.10
2018-05-03T22:13:49.890Z,60.50
2018-05-03T22:16:17.444Z,60.80
2018-05-03T22:18:45.683Z,64.30
2018-05-03T22:21:13.179Z,64.30
2018-05-03T22:23:40.730Z,68.50
2018-05-03T22:26:08.999Z,70.10
2018-05-03T22:28:37.269Z,70.10
2018-05-03T22:31:05.760Z,70.70
2018-05-03T22:33:34.145Z,71.10
2018-05-03T22:36:02.415Z,71.20
2018-05-03T22:38:30.669Z,70.90
2018-05-03T22:40:58.187Z,70.70
2018-05-03T22:43:25.664Z,65.80
2018-05-03T22:45:53.200Z,63.10
2018-05-03T22:48:20.732Z,65.20
2018-05-03T22:50:48.994Z,70.90
2018-05-03T22:53:17.272Z,71.40
2018-05-03T22:55:45.700Z,71.90
2018-05-03T22:58:13.244Z,71.90
2018-05-03T23:00:40.761Z,71.80
2018-05-03T23:03:08.271Z,68.90
2018-05-03T23:05:35.779Z,69.90
2018-05-03T23:08:03.747Z,69.50
2018-05-03T23:10:31.263Z,70.60
2018-05-03T23:12:58.760Z,70.60
2018-05-03T23:15:26.497Z,70.50
2018-05-03T23:17:56.387Z,71.10
2018-05-03T23:20:23.887Z,71.30
2018-05-03T23:22:51.452Z,72.30
2018-05-03T23:25:19.036Z,73.30
2018-05-03T23:27:47.291Z,73.80
2018-05-03T23:30:14.791Z,73.80
2018-05-03T23:32:42.313Z,74.40
2018-05-03T23:35:10.576Z,75.10
2018-05-03T23:37:38.069Z,75.10
2018-05-03T23:40:06.432Z,74.90
2018-05-03T23:42:46.688Z,74.70
2018-05-03T23:45:14.952Z,74.70
2018-05-03T23:47:42.810Z,74.60
2018-05-03T23:50:10.346Z,76.80
2018-05-03T23:52:38.468Z,76.80
2018-05-03T23:55:06.708Z,75.50
2018-05-03T23:57:34.214Z,74.60
